ADDS METAR Data INFO
IDs: Format: Raw Decoded Include TAF

Data at: 1335 UTC 23 Jun 2018

KSRR 231315Z AUTO 20004KT 10SM CLR 20/M08 A3012 RMK AO2
KSRR 231235Z AUTO 22004KT 10SM CLR 18/M10 A3011 RMK AO2
KSRR 231155Z AUTO 28008KT 10SM CLR 20/M12 A3009 RMK AO2
KSRR 231135Z AUTO 29008KT 10SM CLR 19/M11 A3009 RMK AO2
KSRR 231055Z AUTO 31008G14KT 10SM CLR 21/M11 A3008 RMK AO2
KSRR 231035Z AUTO 29009KT 10SM CLR 20/M11 A3008 RMK AO2
KSRR 231015Z AUTO 28010KT 10SM CLR 20/M10 A3007 RMK AO2
KSRR 230955Z AUTO 27009KT 10SM CLR 20/M11 A3006 RMK AO2
KSRR 230935Z AUTO 27009KT 10SM CLR 22/M11 A3006 RMK AO2
KSRR 230915Z AUTO 28008KT 10SM CLR 22/M11 A3007 RMK AO2
KSRR 230855Z AUTO 29009G15KT 10SM CLR 23/M11 A3007 RMK AO2
KSRR 230835Z AUTO 36004KT 10SM CLR 23/M11 A3007 RMK AO2
KSRR 230815Z AUTO 31007KT 10SM CLR 23/M11 A3006 RMK AO2
KSRR 230755Z AUTO 30008KT 10SM CLR 22/M10 A3007 RMK AO2
KSRR 230735Z AUTO 33005KT 10SM CLR 22/M10 A3007 RMK AO2
KSRR 230655Z AUTO 00000KT 10SM CLR 23/M10 A3007 RMK AO2
KSRR 230635Z AUTO 25007KT 10SM CLR 22/M09 A3007 RMK AO2
KSRR 230615Z AUTO 24012KT 10SM CLR 24/M09 A3006 RMK AO2
KSRR 230555Z AUTO 27004KT 10SM CLR 23/M09 A3007 RMK AO2
KSRR 230515Z AUTO 23014G17KT 10SM CLR 25/M10 A3006 RMK AO2
KSRR 230455Z AUTO 23016G23KT 10SM CLR 25/M10 A3006 RMK AO2
KSRR 230435Z AUTO 23014KT 10SM CLR 25/M10 A3007 RMK AO2
KSRR 230415Z AUTO 22012G21KT 10SM CLR 25/M10 A3006 RMK AO2
KSRR 230335Z AUTO 21010KT 10SM CLR 26/M09 A3006 RMK AO2
KSRR 230255Z AUTO 21011G16KT 10SM CLR 27/M08 A3005 RMK AO2
KSRR 230235Z AUTO 22012KT 10SM CLR 28/M08 A3005 RMK AO2
KSRR 230215Z AUTO 23014G22KT 10SM CLR 29/M08 A3004 RMK AO2
KSRR 230155Z AUTO 23018G25KT 10SM CLR 29/M07 A3004 RMK AO2
KSRR 230135Z AUTO 23014G21KT 10SM CLR 30/M06 A3005 RMK AO2
KSRR 230115Z AUTO 23018G26KT 10SM CLR 30/M06 A3005 RMK AO2
KSRR 230015Z AUTO 23018G22KT 10SM CLR 32/M04 A3006 RMK AO2
KSRR 222355Z AUTO 23021G26KT 10SM CLR 32/M03 A3006 RMK AO2
KSRR 222335Z AUTO 25012G24KT 10SM CLR 32/M03 A3007 RMK AO2
KSRR 222255Z AUTO 25020G24KT 10SM CLR 32/M03 A3009 RMK AO2
KSRR 222135Z AUTO 26016G23KT 10SM CLR 32/M03 A3012 RMK AO2
KSRR 222035Z AUTO 29016G22KT 10SM CLR 32/M02 A3015 RMK AO2
KSRR 222015Z AUTO 30010G23KT 280V340 10SM FEW120 32/M03 A3015 RMK AO2
KSRR 221935Z AUTO 27012G18KT 240V330 10SM BKN120 31/M03 A3017 RMK AO2
KSRR 221915Z AUTO 30011G19KT 10SM SCT120 30/M02 A3017 RMK AO2
KSRR 221855Z AUTO 31011G18KT 10SM CLR 31/M03 A3018 RMK AO2
KSRR 221835Z AUTO 28011G19KT 10SM CLR 31/M02 A3019 RMK AO2
KSRR 221815Z AUTO 27010G17KT 10SM CLR 31/M02 A3019 RMK AO2
KSRR 221755Z AUTO 25014G20KT 10SM CLR 30/03 A3019 RMK AO2
KSRR 221735Z AUTO 23016G21KT 10SM CLR 30/04 A3020 RMK AO2
KSRR 221715Z AUTO 23016G22KT 10SM CLR 30/04 A3020 RMK AO2
KSRR 221655Z AUTO 25016G21KT 10SM CLR 29/04 A3020 RMK AO2
KSRR 221635Z AUTO 24015G25KT 10SM CLR 29/04 A3021 RMK AO2
KSRR 221615Z AUTO 23022G26KT 10SM CLR 28/05 A3021 RMK AO2
KSRR 221535Z AUTO 23023G28KT 10SM CLR 27/05 A3021 RMK AO2
KSRR 221455Z AUTO 24021G25KT 10SM CLR 27/07 A3022 RMK AO2
KSRR 221415Z AUTO 24017G22KT 10SM CLR 25/07 A3022 RMK AO2
KSRR 221335Z AUTO 29007KT 10SM CLR 23/06 A3022 RMK AO2
KSRR 221255Z AUTO 29008KT 10SM CLR 23/07 A3021 RMK AO2
KSRR 221235Z AUTO 27010KT 240V300 10SM CLR 22/07 A3020 RMK AO2
KSRR 221215Z AUTO 26010KT 10SM CLR 21/06 A3020 RMK AO2
KSRR 221135Z AUTO 27006KT 10SM CLR 19/07 A3019 RMK AO2
KSRR 221115Z AUTO 00000KT 10SM CLR 18/08 A3019 RMK AO2
KSRR 221055Z AUTO 28004KT 10SM CLR 19/07 A3019 RMK AO2
KSRR 221035Z AUTO 35005KT 10SM CLR 19/07 A3019 RMK AO2
KSRR 221015Z AUTO 24010KT 10SM CLR 20/06 A3019 RMK AO2
KSRR 220955Z AUTO 26008KT 10SM CLR 20/07 A3020 RMK AO2
KSRR 220935Z AUTO 24007KT 10SM CLR 19/09 A3019 RMK AO2
KSRR 220835Z AUTO 21004KT 10SM CLR 18/10 A3021 RMK AO2
KSRR 220755Z AUTO 22005KT 10SM CLR 18/10 A3022 RMK AO2
KSRR 220735Z AUTO 21004KT 10SM CLR 18/10 A3022 RMK AO2
KSRR 220715Z AUTO 00000KT 10SM CLR 19/10 A3023 RMK AO2
KSRR 220655Z AUTO 13005KT 10SM CLR 19/10 A3024 RMK AO2
KSRR 220635Z AUTO 12004KT 10SM CLR 19/10 A3025 RMK AO2
KSRR 220615Z AUTO 12006KT 10SM CLR 19/10 A3025 RMK AO2
KSRR 220555Z AUTO 13007KT 10SM CLR 19/10 A3026 RMK AO2
KSRR 220535Z AUTO 12006KT 10SM CLR 19/10 A3026 RMK AO2
KSRR 220515Z AUTO 12006KT 10SM CLR 20/10 A3027 RMK AO2
KSRR 220435Z AUTO 12007KT 360V130 10SM CLR 21/10 A3027 RMK AO2
KSRR 220335Z AUTO 12008KT 10SM CLR 23/10 A3026 RMK AO2
KSRR 220315Z AUTO 13008KT 10SM CLR 23/10 A3026 RMK AO2
KSRR 220255Z AUTO 13009KT 10SM CLR 23/11 A3025 RMK AO2
KSRR 220235Z AUTO 12007KT 10SM CLR 23/11 A3025 RMK AO2
KSRR 220155Z AUTO 13010KT 10SM CLR 25/11 A3025 RMK AO2